sensor_id;sensor_type;location;lat;lon;timestamp;pressure;altitude;pressure_sealevel;temperature;humidity
79752;BME280;69234;47.446;21.636;2024-02-14T00:00:03;100908.34;;;5.32;64.58
79752;BME280;69234;47.446;21.636;2024-02-14T00:00:35;100910.06;;;5.33;65.78
79752;BME280;69234;47.446;21.636;2024-02-14T00:01:06;100909.13;;;5.34;64.92
79752;BME280;69234;47.446;21.636;2024-02-14T00:01:40;100911.81;;;5.34;65.30
79752;BME280;69234;47.446;21.636;2024-02-14T00:02:11;100912.72;;;5.33;65.00
79752;BME280;69234;47.446;21.636;2024-02-14T00:02:46;100905.78;;;5.31;65.08
79752;BME280;69234;47.446;21.636;2024-02-14T00:03:19;100904.25;;;5.27;65.82
79752;BME280;69234;47.446;21.636;2024-02-14T00:03:52;100916.34;;;5.32;65.41
79752;BME280;69234;47.446;21.636;2024-02-14T00:04:23;100912.91;;;5.30;64.95
79752;BME280;69234;47.446;21.636;2024-02-14T00:04:54;100904.03;;;5.30;64.63
79752;BME280;69234;47.446;21.636;2024-02-14T00:05:25;100916.44;;;5.31;65.02
79752;BME280;69234;47.446;21.636;2024-02-14T00:05:56;100911.97;;;5.31;64.79
79752;BME280;69234;47.446;21.636;2024-02-14T00:06:27;100917.28;;;5.31;65.01
79752;BME280;69234;47.446;21.636;2024-02-14T00:06:59;100911.19;;;5.29;65.02
79752;BME280;69234;47.446;21.636;2024-02-14T00:07:30;100915.81;;;5.25;64.80
79752;BME280;69234;47.446;21.636;2024-02-14T00:08:01;100914.78;;;5.28;65.24
79752;BME280;69234;47.446;21.636;2024-02-14T00:08:33;100923.75;;;5.27;65.30
79752;BME280;69234;47.446;21.636;2024-02-14T00:09:04;100914.91;;;5.27;65.40
79752;BME280;69234;47.446;21.636;2024-02-14T00:09:35;100919.34;;;5.26;65.45
79752;BME280;69234;47.446;21.636;2024-02-14T00:10:07;100917.63;;;5.25;65.48
79752;BME280;69234;47.446;21.636;2024-02-14T00:10:38;100921.13;;;5.25;64.88
79752;BME280;69234;47.446;21.636;2024-02-14T00:11:09;100916.66;;;5.26;64.74
79752;BME280;69234;47.446;21.636;2024-02-14T00:11:39;100922.00;;;5.26;64.98
79752;BME280;69234;47.446;21.636;2024-02-14T00:12:10;100920.28;;;5.25;64.72
79752;BME280;69234;47.446;21.636;2024-02-14T00:12:42;100925.72;;;5.23;65.40
79752;BME280;69234;47.446;21.636;2024-02-14T00:13:13;100929.28;;;5.22;65.20
79752;BME280;69234;47.446;21.636;2024-02-14T00:13:44;100921.31;;;5.22;65.12
79752;BME280;69234;47.446;21.636;2024-02-14T00:14:15;100925.88;;;5.20;64.78
79752;BME280;69234;47.446;21.636;2024-02-14T00:14:46;100922.25;;;5.21;65.01
79752;BME280;69234;47.446;21.636;2024-02-14T00:15:17;100923.09;;;5.22;65.42
79752;BME280;69234;47.446;21.636;2024-02-14T00:15:48;100923.22;;;5.20;65.55
79752;BME280;69234;47.446;21.636;2024-02-14T00:16:19;100926.63;;;5.22;65.39
79752;BME280;69234;47.446;21.636;2024-02-14T00:16:50;100924.66;;;5.26;64.28
79752;BME280;69234;47.446;21.636;2024-02-14T00:17:21;100920.38;;;5.23;65.21
79752;BME280;69234;47.446;21.636;2024-02-14T00:17:52;100933.59;;;5.25;65.40
79752;BME280;69234;47.446;21.636;2024-02-14T00:18:24;100922.94;;;5.25;64.36
79752;BME280;69234;47.446;21.636;2024-02-14T00:18:55;100916.66;;;5.26;64.88
79752;BME280;69234;47.446;21.636;2024-02-14T00:19:27;100928.28;;;5.25;64.80
79752;BME280;69234;47.446;21.636;2024-02-14T00:19:58;100923.03;;;5.23;65.40
79752;BME280;69234;47.446;21.636;2024-02-14T00:20:29;100938.94;;;5.25;65.39
79752;BME280;69234;47.446;21.636;2024-02-14T00:21:00;100937.13;;;5.25;65.23
79752;BME280;69234;47.446;21.636;2024-02-14T00:21:31;100922.00;;;5.26;65.42
79752;BME280;69234;47.446;21.636;2024-02-14T00:22:02;100932.66;;;5.26;64.80
79752;BME280;69234;47.446;21.636;2024-02-14T00:22:36;100925.53;;;5.27;64.39
79752;BME280;69234;47.446;21.636;2024-02-14T00:23:07;100927.31;;;5.26;65.40
79752;BME280;69234;47.446;21.636;2024-02-14T00:23:38;100929.97;;;5.26;65.29
79752;BME280;69234;47.446;21.636;2024-02-14T00:24:09;100926.31;;;5.29;65.15
79752;BME280;69234;47.446;21.636;2024-02-14T00:24:40;100922.78;;;5.28;64.97
79752;BME280;69234;47.446;21.636;2024-02-14T00:25:11;100928.22;;;5.27;64.59
79752;BME280;69234;47.446;21.636;2024-02-14T00:25:42;100931.72;;;5.27;65.71
79752;BME280;69234;47.446;21.636;2024-02-14T00:26:12;100930.88;;;5.27;65.72
79752;BME280;69234;47.446;21.636;2024-02-14T00:26:44;100930.88;;;5.27;65.31
79752;BME280;69234;47.446;21.636;2024-02-14T00:27:16;100937.13;;;5.25;64.92
79752;BME280;69234;47.446;21.636;2024-02-14T00:27:48;100934.38;;;5.27;65.29
79752;BME280;69234;47.446;21.636;2024-02-14T00:28:18;100930.88;;;5.27;64.71
79752;BME280;69234;47.446;21.636;2024-02-14T00:28:49;100931.88;;;5.24;64.94
79752;BME280;69234;47.446;21.636;2024-02-14T00:29:20;100929.13;;;5.25;65.77
79752;BME280;69234;47.446;21.636;2024-02-14T00:29:51;100929.97;;;5.26;65.80
79752;BME280;69234;47.446;21.636;2024-02-14T00:30:24;100932.91;;;5.21;65.69
79752;BME280;69234;47.446;21.636;2024-02-14T00:30:55;100939.88;;;5.24;65.88
79752;BME280;69234;47.446;21.636;2024-02-14T00:31:26;100933.59;;;5.25;65.48
79752;BME280;69234;47.446;21.636;2024-02-14T00:31:57;100942.53;;;5.24;65.51
79752;BME280;69234;47.446;21.636;2024-02-14T00:32:28;100934.63;;;5.22;65.26
79752;BME280;69234;47.446;21.636;2024-02-14T00:32:59;100935.50;;;5.23;65.60
79752;BME280;69234;47.446;21.636;2024-02-14T00:33:31;100933.75;;;5.22;65.65
79752;BME280;69234;47.446;21.636;2024-02-14T00:34:01;100936.53;;;5.20;65.15
79752;BME280;69234;47.446;21.636;2024-02-14T00:34:33;100934.72;;;5.21;65.28
79752;BME280;69234;47.446;21.636;2024-02-14T00:35:04;100934.97;;;5.16;65.44
79752;BME280;69234;47.446;21.636;2024-02-14T00:35:35;100936.69;;;5.17;65.57
79752;BME280;69234;47.446;21.636;2024-02-14T00:36:07;100938.41;;;5.18;65.39
79752;BME280;69234;47.446;21.636;2024-02-14T00:36:38;100938.41;;;5.18;66.10
79752;BME280;69234;47.446;21.636;2024-02-14T00:37:09;100943.56;;;5.21;65.90
79752;BME280;69234;47.446;21.636;2024-02-14T00:37:40;100936.53;;;5.20;65.16
79752;BME280;69234;47.446;21.636;2024-02-14T00:38:11;100939.19;;;5.20;65.91
79752;BME280;69234;47.446;21.636;2024-02-14T00:38:42;100938.16;;;5.23;65.86
79752;BME280;69234;47.446;21.636;2024-02-14T00:39:12;100935.56;;;5.21;65.83
79752;BME280;69234;47.446;21.636;2024-02-14T00:39:43;100939.88;;;5.24;66.35
79752;BME280;69234;47.446;21.636;2024-02-14T00:40:14;100941.75;;;5.22;65.88
79752;BME280;69234;47.446;21.636;2024-02-14T00:40:45;100941.91;;;5.19;65.53
79752;BME280;69234;47.446;21.636;2024-02-14T00:41:16;100935.66;;;5.20;66.35
79752;BME280;69234;47.446;21.636;2024-02-14T00:41:47;100939.09;;;5.22;66.02
79752;BME280;69234;47.446;21.636;2024-02-14T00:42:18;100933.06;;;5.18;66.11
79752;BME280;69234;47.446;21.636;2024-02-14T00:42:49;100938.22;;;5.21;66.21
79752;BME280;69234;47.446;21.636;2024-02-14T00:43:20;100938.22;;;5.21;65.62
79752;BME280;69234;47.446;21.636;2024-02-14T00:43:51;100939.09;;;5.22;66.16
79752;BME280;69234;47.446;21.636;2024-02-14T00:44:22;100941.00;;;5.20;66.71
79752;BME280;69234;47.446;21.636;2024-02-14T00:44:53;100945.44;;;5.19;65.78
79752;BME280;69234;47.446;21.636;2024-02-14T00:45:24;100940.03;;;5.21;66.25
79752;BME280;69234;47.446;21.636;2024-02-14T00:45:55;100940.09;;;5.19;66.86
79752;BME280;69234;47.446;21.636;2024-02-14T00:46:27;100944.50;;;5.20;66.29
79752;BME280;69234;47.446;21.636;2024-02-14T00:46:58;100946.38;;;5.18;66.39
79752;BME280;69234;47.446;21.636;2024-02-14T00:47:32;100950.75;;;5.19;66.80
79752;BME280;69234;47.446;21.636;2024-02-14T00:48:04;100946.47;;;5.17;66.78
79752;BME280;69234;47.446;21.636;2024-02-14T00:48:34;100945.63;;;5.16;66.12
79752;BME280;69234;47.446;21.636;2024-02-14T00:49:05;100942.06;;;5.16;66.21
79752;BME280;69234;47.446;21.636;2024-02-14T00:49:36;100946.47;;;5.17;67.00
79752;BME280;69234;47.446;21.636;2024-02-14T00:50:08;100949.38;;;5.12;66.85
79752;BME280;69234;47.446;21.636;2024-02-14T00:50:39;100945.09;;;5.10;67.11
79752;BME280;69234;47.446;21.636;2024-02-14T00:51:10;100943.97;;;5.14;67.04
79752;BME280;69234;47.446;21.636;2024-02-14T00:51:41;100940.63;;;5.10;67.04
79752;BME280;69234;47.446;21.636;2024-02-14T00:52:12;100938.72;;;5.12;67.38
79752;BME280;69234;47.446;21.636;2024-02-14T00:52:43;100949.38;;;5.12;66.61
79752;BME280;69234;47.446;21.636;2024-02-14T00:53:14;100938.13;;;5.07;67.05
79752;BME280;69234;47.446;21.636;2024-02-14T00:53:45;100939.66;;;5.11;67.36
79752;BME280;69234;47.446;21.636;2024-02-14T00:54:16;100957.28;;;5.14;66.59
79752;BME280;69234;47.446;21.636;2024-02-14T00:54:47;100949.47;;;5.11;66.89
79752;BME280;69234;47.446;21.636;2024-02-14T00:55:18;100945.00;;;5.11;67.34
79752;BME280;69234;47.446;21.636;2024-02-14T00:55:49;100941.38;;;5.12;66.67
79752;BME280;69234;47.446;21.636;2024-02-14T00:56:20;100944.03;;;5.12;66.60
79752;BME280;69234;47.446;21.636;2024-02-14T00:56:51;100943.19;;;5.12;67.32
79752;BME280;69234;47.446;21.636;2024-02-14T00:57:22;100941.31;;;5.14;66.71
79752;BME280;69234;47.446;21.636;2024-02-14T00:57:56;100944.94;;;5.13;67.21
79752;BME280;69234;47.446;21.636;2024-02-14T00:58:27;100944.03;;;5.12;67.25
79752;BME280;69234;47.446;21.636;2024-02-14T00:58:58;100941.56;;;5.09;66.84
79752;BME280;69234;47.446;21.636;2024-02-14T00:59:29;100945.16;;;5.08;66.82
79752;BME280;69234;47.446;21.636;2024-02-14T01:00:00;100939.81;;;5.08;66.76
79752;BME280;69234;47.446;21.636;2024-02-14T01:00:31;100941.63;;;5.08;67.19
79752;BME280;69234;47.446;21.636;2024-02-14T01:01:05;100940.78;;;5.07;67.04
79752;BME280;69234;47.446;21.636;2024-02-14T01:01:36;100944.56;;;5.03;67.42
79752;BME280;69234;47.446;21.636;2024-02-14T01:02:06;100936.56;;;5.03;67.16
79752;BME280;69234;47.446;21.636;2024-02-14T01:02:37;100944.56;;;5.03;67.63
79752;BME280;69234;47.446;21.636;2024-02-14T01:03:08;100950.56;;;5.07;67.71
79752;BME280;69234;47.446;21.636;2024-02-14T01:03:43;100939.13;;;5.05;67.96
79752;BME280;69234;47.446;21.636;2024-02-14T01:04:14;100944.56;;;5.03;67.95
79752;BME280;69234;47.446;21.636;2024-02-14T01:04:45;100941.03;;;5.03;67.33
79752;BME280;69234;47.446;21.636;2024-02-14T01:05:16;100950.91;;;5.00;67.88
79752;BME280;69234;47.446;21.636;2024-02-14T01:05:48;100944.72;;;5.00;67.80
79752;BME280;69234;47.446;21.636;2024-02-14T01:06:18;100943.91;;;4.98;67.27
79752;BME280;69234;47.446;21.636;2024-02-14T01:06:50;100947.44;;;4.98;67.79
79752;BME280;69234;47.446;21.636;2024-02-14T01:07:22;100951.16;;;4.96;68.16
79752;BME280;69234;47.446;21.636;2024-02-14T01:07:53;100946.75;;;4.95;68.07
79752;BME280;69234;47.446;21.636;2024-02-14T01:08:24;100952.06;;;4.95;67.49
79752;BME280;69234;47.446;21.636;2024-02-14T01:08:55;100953.00;;;4.94;67.25
79752;BME280;69234;47.446;21.636;2024-02-14T01:09:26;100952.25;;;4.92;67.32
79752;BME280;69234;47.446;21.636;2024-02-14T01:09:57;100947.78;;;4.92;67.54
79752;BME280;69234;47.446;21.636;2024-02-14T01:10:28;100940.88;;;4.88;67.95
79752;BME280;69234;47.446;21.636;2024-02-14T01:10:59;100944.50;;;4.87;68.09
79752;BME280;69234;47.446;21.636;2024-02-14T01:11:30;100942.78;;;4.86;68.16
79752;BME280;69234;47.446;21.636;2024-02-14T01:12:01;100944.59;;;4.86;67.40
79752;BME280;69234;47.446;21.636;2024-02-14T01:12:32;100942.84;;;4.85;67.63
79752;BME280;69234;47.446;21.636;2024-02-14T01:13:03;100945.69;;;4.82;68.56
79752;BME280;69234;47.446;21.636;2024-02-14T01:13:35;100942.22;;;4.80;68.29
79752;BME280;69234;47.446;21.636;2024-02-14T01:14:06;100945.91;;;4.77;68.28
79752;BME280;69234;47.446;21.636;2024-02-14T01:14:37;100946.84;;;4.76;67.69
79752;BME280;69234;47.446;21.636;2024-02-14T01:15:08;100941.59;;;4.74;67.31
79752;BME280;69234;47.446;21.636;2024-02-14T01:15:39;100939.81;;;4.75;67.66
79752;BME280;69234;47.446;21.636;2024-02-14T01:16:10;100938.88;;;4.76;67.12
79752;BME280;69234;47.446;21.636;2024-02-14T01:16:45;100950.47;;;4.75;68.27
79752;BME280;69234;47.446;21.636;2024-02-14T01:17:16;100949.69;;;4.73;67.44
79752;BME280;69234;47.446;21.636;2024-02-14T01:17:47;100948.81;;;4.72;67.38
79752;BME280;69234;47.446;21.636;2024-02-14T01:18:18;100943.41;;;4.74;67.16
79752;BME280;69234;47.446;21.636;2024-02-14T01:18:49;100949.78;;;4.71;67.46
79752;BME280;69234;47.446;21.636;2024-02-14T01:19:20;100956.81;;;4.72;67.78
79752;BME280;69234;47.446;21.636;2024-02-14T01:19:51;100944.34;;;4.73;67.22
79752;BME280;69234;47.446;21.636;2024-02-14T01:20:22;100940.84;;;4.72;67.38
79752;BME280;69234;47.446;21.636;2024-02-14T01:20:55;100943.41;;;4.74;66.72
79752;BME280;69234;47.446;21.636;2024-02-14T01:21:26;100949.69;;;4.73;67.37
79752;BME280;69234;47.446;21.636;2024-02-14T01:21:57;100943.66;;;4.69;67.96
79752;BME280;69234;47.446;21.636;2024-02-14T01:22:28;100948.88;;;4.71;67.17
79752;BME280;69234;47.446;21.636;2024-02-14T01:22:59;100945.38;;;4.70;68.04
79752;BME280;69234;47.446;21.636;2024-02-14T01:23:30;100944.50;;;4.70;68.03
79752;BME280;69234;47.446;21.636;2024-02-14T01:24:01;100944.50;;;4.70;67.14
79752;BME280;69234;47.446;21.636;2024-02-14T01:24:32;100950.78;;;4.69;67.17
79752;BME280;69234;47.446;21.636;2024-02-14T01:25:04;100939.44;;;4.65;67.57
79752;BME280;69234;47.446;21.636;2024-02-14T01:25:35;100951.53;;;4.71;66.99
79752;BME280;69234;47.446;21.636;2024-02-14T01:26:06;100947.25;;;4.68;67.53
79752;BME280;69234;47.446;21.636;2024-02-14T01:26:37;100945.63;;;4.66;67.48
79752;BME280;69234;47.446;21.636;2024-02-14T01:27:08;100941.31;;;4.63;67.29
79752;BME280;69234;47.446;21.636;2024-02-14T01:27:39;100943.03;;;4.64;67.17
79752;BME280;69234;47.446;21.636;2024-02-14T01:28:11;100938.56;;;4.65;67.98
79752;BME280;69234;47.446;21.636;2024-02-14T01:28:42;100943.91;;;4.65;67.88
79752;BME280;69234;47.446;21.636;2024-02-14T01:29:15;100944.81;;;4.64;68.11
79752;BME280;69234;47.446;21.636;2024-02-14T01:29:47;100940.53;;;4.61;67.63
79752;BME280;69234;47.446;21.636;2024-02-14T01:30:18;100938.03;;;4.58;67.57
79752;BME280;69234;47.446;21.636;2024-02-14T01:30:49;100939.59;;;4.62;68.33
79752;BME280;69234;47.446;21.636;2024-02-14T01:31:21;100932.56;;;4.61;67.57
79752;BME280;69234;47.446;21.636;2024-02-14T01:31:53;100945.00;;;4.61;67.93
79752;BME280;69234;47.446;21.636;2024-02-14T01:32:23;100942.25;;;4.62;67.94
79752;BME280;69234;47.446;21.636;2024-02-14T01:32:58;100939.59;;;4.62;67.36
79752;BME280;69234;47.446;21.636;2024-02-14T01:33:31;100943.09;;;4.63;67.88
79752;BME280;69234;47.446;21.636;2024-02-14T01:34:02;100941.41;;;4.62;68.14
79752;BME280;69234;47.446;21.636;2024-02-14T01:34:33;100943.25;;;4.60;68.19
79752;BME280;69234;47.446;21.636;2024-02-14T01:35:05;100943.34;;;4.58;67.96
79752;BME280;69234;47.446;21.636;2024-02-14T01:35:36;100940.75;;;4.57;68.22
79752;BME280;69234;47.446;21.636;2024-02-14T01:36:07;100937.94;;;4.60;68.21
79752;BME280;69234;47.446;21.636;2024-02-14T01:36:38;100944.13;;;4.60;67.48
79752;BME280;69234;47.446;21.636;2024-02-14T01:37:09;100937.94;;;4.60;67.56
79752;BME280;69234;47.446;21.636;2024-02-14T01:37:40;100934.41;;;4.59;68.14
79752;BME280;69234;47.446;21.636;2024-02-14T01:38:11;100934.41;;;4.59;67.62
79752;BME280;69234;47.446;21.636;2024-02-14T01:38:43;100938.88;;;4.59;67.71
79752;BME280;69234;47.446;21.636;2024-02-14T01:39:15;100945.16;;;4.58;67.52
79752;BME280;69234;47.446;21.636;2024-02-14T01:39:48;100930.97;;;4.57;68.20
79752;BME280;69234;47.446;21.636;2024-02-14T01:40:19;100945.16;;;4.58;67.84
79752;BME280;69234;47.446;21.636;2024-02-14T01:40:50;100946.00;;;4.58;68.29
79752;BME280;69234;47.446;21.636;2024-02-14T01:41:21;100946.88;;;4.59;67.88
79752;BME280;69234;47.446;21.636;2024-02-14T01:41:52;100942.41;;;4.59;68.20
79752;BME280;69234;47.446;21.636;2024-02-14T01:42:23;100947.72;;;4.59;68.17
79752;BME280;69234;47.446;21.636;2024-02-14T01:42:54;100947.81;;;4.58;68.00
79752;BME280;69234;47.446;21.636;2024-02-14T01:43:26;100940.75;;;4.57;67.45
79752;BME280;69234;47.446;21.636;2024-02-14T01:43:56;100944.34;;;4.56;68.15
79752;BME280;69234;47.446;21.636;2024-02-14T01:44:29;100945.31;;;4.55;67.99
79752;BME280;69234;47.446;21.636;2024-02-14T01:45:00;100949.69;;;4.56;67.51
79752;BME280;69234;47.446;21.636;2024-02-14T01:45:33;100943.41;;;4.57;67.93
79752;BME280;69234;47.446;21.636;2024-02-14T01:46:07;100950.38;;;4.59;68.15
79752;BME280;69234;47.446;21.636;2024-02-14T01:46:38;100941.59;;;4.57;67.60
79752;BME280;69234;47.446;21.636;2024-02-14T01:47:13;100942.66;;;4.55;67.85
79752;BME280;69234;47.446;21.636;2024-02-14T01:47:44;100943.50;;;4.55;68.22
79752;BME280;69234;47.446;21.636;2024-02-14T01:48:15;100941.09;;;4.50;68.14
79752;BME280;69234;47.446;21.636;2024-02-14T01:48:49;100954.84;;;4.59;67.38
79752;BME280;69234;47.446;21.636;2024-02-14T01:49:20;100944.34;;;4.56;68.02
79752;BME280;69234;47.446;21.636;2024-02-14T01:49:51;100950.53;;;4.56;68.60
79752;BME280;69234;47.446;21.636;2024-02-14T01:50:22;100949.84;;;4.52;67.58
79752;BME280;69234;47.446;21.636;2024-02-14T01:51:01;100942.66;;;4.55;68.01
79752;BME280;69234;47.446;21.636;2024-02-14T01:51:35;100945.38;;;4.53;67.41
79752;BME280;69234;47.446;21.636;2024-02-14T01:52:07;100950.63;;;4.55;67.89
79752;BME280;69234;47.446;21.636;2024-02-14T01:52:38;100946.16;;;4.55;67.13
79752;BME280;69234;47.446;21.636;2024-02-14T01:53:11;100947.97;;;4.55;67.94
79752;BME280;69234;47.446;21.636;2024-02-14T01:53:42;100954.84;;;4.59;67.96
79752;BME280;69234;47.446;21.636;2024-02-14T01:54:15;100959.31;;;4.58;68.08
79752;BME280;69234;47.446;21.636;2024-02-14T01:54:48;100950.53;;;4.56;67.73
79752;BME280;69234;47.446;21.636;2024-02-14T01:55:21;100953.28;;;4.55;67.99
79752;BME280;69234;47.446;21.636;2024-02-14T01:55:52;100958.59;;;4.55;67.77
79752;BME280;69234;47.446;21.636;2024-02-14T01:56:23;100948.88;;;4.53;67.96
79752;BME280;69234;47.446;21.636;2024-02-14T01:56:55;100948.03;;;4.53;68.45
79752;BME280;69234;47.446;21.636;2024-02-14T01:57:27;100950.00;;;4.49;68.09
79752;BME280;69234;47.446;21.636;2024-02-14T01:57:58;100952.66;;;4.49;68.52
79752;BME280;69234;47.446;21.636;2024-02-14T01:58:30;100956.97;;;4.52;68.50
79752;BME280;69234;47.446;21.636;2024-02-14T01:59:01;100953.44;;;4.51;67.77
79752;BME280;69234;47.446;21.636;2024-02-14T01:59:34;100956.09;;;4.51;67.55
79752;BME280;69234;47.446;21.636;2024-02-14T02:00:08;100957.06;;;4.50;67.54
79752;BME280;69234;47.446;21.636;2024-02-14T02:00:43;100953.44;;;4.51;68.11
79752;BME280;69234;47.446;21.636;2024-02-14T02:01:18;100957.91;;;4.51;67.35
79752;BME280;69234;47.446;21.636;2024-02-14T02:01:49;100965.78;;;4.52;67.53
79752;BME280;69234;47.446;21.636;2024-02-14T02:02:22;100955.16;;;4.52;67.86
79752;BME280;69234;47.446;21.636;2024-02-14T02:02:54;100949.84;;;4.52;67.80
79752;BME280;69234;47.446;21.636;2024-02-14T02:03:26;100956.00;;;4.53;67.93
79752;BME280;69234;47.446;21.636;2024-02-14T02:03:58;100956.97;;;4.52;67.18
79752;BME280;69234;47.446;21.636;2024-02-14T02:04:29;100957.91;;;4.51;67.73
79752;BME280;69234;47.446;21.636;2024-02-14T02:05:01;100957.09;;;4.49;67.77
79752;BME280;69234;47.446;21.636;2024-02-14T02:05:32;100957.06;;;4.50;67.62
79752;BME280;69234;47.446;21.636;2024-02-14T02:06:07;100956.16;;;4.50;67.25
79752;BME280;69234;47.446;21.636;2024-02-14T02:06:39;100960.63;;;4.49;68.19
79752;BME280;69234;47.446;21.636;2024-02-14T02:07:12;100966.91;;;4.48;68.20
79752;BME280;69234;47.446;21.636;2024-02-14T02:07:43;100960.78;;;4.46;68.05
79752;BME280;69234;47.446;21.636;2024-02-14T02:08:14;100963.44;;;4.46;68.16
79752;BME280;69234;47.446;21.636;2024-02-14T02:08:46;100958.13;;;4.46;67.74
79752;BME280;69234;47.446;21.636;2024-02-14T02:09:17;100973.31;;;4.44;67.72
79752;BME280;69234;47.446;21.636;2024-02-14T02:09:48;100967.19;;;4.42;68.00
79752;BME280;69234;47.446;21.636;2024-02-14T02:10:19;100960.94;;;4.43;68.21
79752;BME280;69234;47.446;21.636;2024-02-14T02:10:51;100968.00;;;4.44;67.61
79752;BME280;69234;47.446;21.636;2024-02-14T02:11:22;100964.53;;;4.42;67.63
79752;BME280;69234;47.446;21.636;2024-02-14T02:11:55;100964.53;;;4.42;68.27
79752;BME280;69234;47.446;21.636;2024-02-14T02:12:27;100969.09;;;4.40;68.12
79752;BME280;69234;47.446;21.636;2024-02-14T02:13:00;100949.97;;;4.32;68.52
79752;BME280;69234;47.446;21.636;2024-02-14T02:13:32;100968.16;;;4.41;67.81
79752;BME280;69234;47.446;21.636;2024-02-14T02:14:03;100967.34;;;4.39;68.48
79752;BME280;69234;47.446;21.636;2024-02-14T02:14:34;100964.69;;;4.39;68.35
79752;BME280;69234;47.446;21.636;2024-02-14T02:15:06;100971.03;;;4.37;67.96
79752;BME280;69234;47.446;21.636;2024-02-14T02:15:37;100967.50;;;4.36;68.80
79752;BME280;69234;47.446;21.636;2024-02-14T02:16:08;100967.44;;;4.38;68.15
79752;BME280;69234;47.446;21.636;2024-02-14T02:16:39;100971.09;;;4.35;68.49
79752;BME280;69234;47.446;21.636;2024-02-14T02:17:11;100963.28;;;4.32;68.28
79752;BME280;69234;47.446;21.636;2024-02-14T02:17:43;100962.41;;;4.32;68.93
79752;BME280;69234;47.446;21.636;2024-02-14T02:18:16;100965.16;;;4.30;68.82
79752;BME280;69234;47.446;21.636;2024-02-14T02:18:47;100967.88;;;4.28;69.11
79752;BME280;69234;47.446;21.636;2024-02-14T02:19:19;100965.22;;;4.28;68.57
79752;BME280;69234;47.446;21.636;2024-02-14T02:19:52;100973.19;;;4.28;68.21
79752;BME280;69234;47.446;21.636;2024-02-14T02:20:23;100969.69;;;4.28;68.13
79752;BME280;69234;47.446;21.636;2024-02-14T02:20:54;100966.22;;;4.26;69.09
79752;BME280;69234;47.446;21.636;2024-02-14T02:21:25;100973.16;;;4.30;68.67
79752;BME280;69234;47.446;21.636;2024-02-14T02:21:56;100968.75;;;4.29;69.30
79752;BME280;69234;47.446;21.636;2024-02-14T02:22:27;100974.06;;;4.29;68.04
79752;BME280;69234;47.446;21.636;2024-02-14T02:23:02;100970.50;;;4.30;68.31
79752;BME280;69234;47.446;21.636;2024-02-14T02:23:36;100972.34;;;4.28;69.20
79752;BME280;69234;47.446;21.636;2024-02-14T02:24:07;100967.03;;;4.28;69.12
79752;BME280;69234;47.446;21.636;2024-02-14T02:24:38;100979.47;;;4.27;69.24
79752;BME280;69234;47.446;21.636;2024-02-14T02:25:09;100976.00;;;4.25;68.48
79752;BME280;69234;47.446;21.636;2024-02-14T02:25:41;100976.97;;;4.24;69.65
79752;BME280;69234;47.446;21.636;2024-02-14T02:26:12;100977.03;;;4.23;68.84
79752;BME280;69234;47.446;21.636;2024-02-14T02:26:43;100978.75;;;4.24;69.23
79752;BME280;69234;47.446;21.636;2024-02-14T02:27:14;100968.88;;;4.26;68.70
79752;BME280;69234;47.446;21.636;2024-02-14T02:27:46;100979.47;;;4.27;69.42
79752;BME280;69234;47.446;21.636;2024-02-14T02:28:17;100970.63;;;4.27;68.57
79752;BME280;69234;47.446;21.636;2024-02-14T02:28:48;100982.19;;;4.26;69.24
79752;BME280;69234;47.446;21.636;2024-02-14T02:29:19;100983.06;;;4.26;69.29
79752;BME280;69234;47.446;21.636;2024-02-14T02:29:50;100973.19;;;4.28;69.13
79752;BME280;69234;47.446;21.636;2024-02-14T02:30:21;100976.72;;;4.29;69.24
79752;BME280;69234;47.446;21.636;2024-02-14T02:30:52;100977.59;;;4.29;69.24
79752;BME280;69234;47.446;21.636;2024-02-14T02:31:24;100975.88;;;4.28;68.46
79752;BME280;69234;47.446;21.636;2024-02-14T02:31:56;100975.72;;;4.32;68.57
79752;BME280;69234;47.446;21.636;2024-02-14T02:32:26;100978.38;;;4.32;68.47
79752;BME280;69234;47.446;21.636;2024-02-14T02:32:57;100973.06;;;4.32;68.85
79752;BME280;69234;47.446;21.636;2024-02-14T02:33:29;100983.69;;;4.32;69.78
79752;BME280;69234;47.446;21.636;2024-02-14T02:34:00;100982.84;;;4.31;68.76
79752;BME280;69234;47.446;21.636;2024-02-14T02:34:30;100974.22;;;4.26;69.42
79752;BME280;69234;47.446;21.636;2024-02-14T02:35:02;100973.19;;;4.28;69.81
79752;BME280;69234;47.446;21.636;2024-02-14T02:35:33;100974.06;;;4.29;69.56
79752;BME280;69234;47.446;21.636;2024-02-14T02:36:04;100978.38;;;4.32;69.72
79752;BME280;69234;47.446;21.636;2024-02-14T02:36:37;100981.88;;;4.32;69.28
79752;BME280;69234;47.446;21.636;2024-02-14T02:37:08;100983.63;;;4.33;69.67
79752;BME280;69234;47.446;21.636;2024-02-14T02:37:40;100976.50;;;4.34;69.56
79752;BME280;69234;47.446;21.636;2024-02-14T02:38:11;100980.97;;;4.33;69.31
79752;BME280;69234;47.446;21.636;2024-02-14T02:38:43;100974.16;;;4.27;69.58
79752;BME280;69234;47.446;21.636;2024-02-14T02:39:14;100986.34;;;4.32;69.53
79752;BME280;69234;47.446;21.636;2024-02-14T02:39:46;100982.97;;;4.28;70.39
79752;BME280;69234;47.446;21.636;2024-02-14T02:40:17;100979.53;;;4.26;69.67
79752;BME280;69234;47.446;21.636;2024-02-14T02:40:48;100980.56;;;4.23;70.59
79752;BME280;69234;47.446;21.636;2024-02-14T02:41:19;100983.13;;;4.25;70.59
79752;BME280;69234;47.446;21.636;2024-02-14T02:41:50;100975.16;;;4.25;69.67
79752;BME280;69234;47.446;21.636;2024-02-14T02:42:21;100978.75;;;4.24;69.93
79752;BME280;69234;47.446;21.636;2024-02-14T02:42:53;100989.31;;;4.25;70.25
79752;BME280;69234;47.446;21.636;2024-02-14T02:43:24;100985.88;;;4.23;70.25
79752;BME280;69234;47.446;21.636;2024-02-14T02:43:55;100985.03;;;4.23;70.25
79752;BME280;69234;47.446;21.636;2024-02-14T02:44:26;100990.34;;;4.23;70.99